sensor_id;sensor_type;location;lat;lon;timestamp;pressure;altitude;pressure_sealevel;temperature;humidity
49341;BME280;35209;51.050;13.678;2023-03-04T00:03:51;100413.69;;;0.80;96.64
49341;BME280;35209;51.050;13.678;2023-03-04T00:08:53;100417.16;;;0.79;96.30
49341;BME280;35209;51.050;13.678;2023-03-04T00:13:55;100410.38;;;0.88;95.90
49341;BME280;35209;51.050;13.678;2023-03-04T00:18:57;100413.69;;;0.77;96.40
49341;BME280;35209;51.050;13.678;2023-03-04T00:23:59;100401.50;;;0.68;97.14
49341;BME280;35209;51.050;13.678;2023-03-04T00:29:01;100397.38;;;0.84;96.53
49341;BME280;35209;51.050;13.678;2023-03-04T00:34:02;100391.44;;;0.91;95.77
49341;BME280;35209;51.050;13.678;2023-03-04T00:39:04;100393.00;;;0.77;97.10
49341;BME280;35209;51.050;13.678;2023-03-04T00:44:06;100382.75;;;0.86;97.06
49341;BME280;35209;51.050;13.678;2023-03-04T00:49:08;100391.25;;;0.75;97.86
49341;BME280;35209;51.050;13.678;2023-03-04T00:54:09;100375.69;;;0.74;97.72
49341;BME280;35209;51.050;13.678;2023-03-04T00:59:11;100378.38;;;0.82;97.26
49341;BME280;35209;51.050;13.678;2023-03-04T01:04:13;100376.78;;;0.91;96.43
49341;BME280;35209;51.050;13.678;2023-03-04T01:09:14;100367.13;;;0.80;96.80
49341;BME280;35209;51.050;13.678;2023-03-04T01:14:16;100359.34;;;0.78;97.37
49341;BME280;35209;51.050;13.678;2023-03-04T01:19:18;100351.69;;;0.84;96.76
49341;BME280;35209;51.050;13.678;2023-03-04T01:24:20;100342.97;;;0.78;96.59
49341;BME280;35209;51.050;13.678;2023-03-04T01:29:22;100341.34;;;0.87;95.86
49341;BME280;35209;51.050;13.678;2023-03-04T01:34:23;100323.34;;;0.96;95.01
49341;BME280;35209;51.050;13.678;2023-03-04T01:39:25;100318.13;;;0.92;95.37
49341;BME280;35209;51.050;13.678;2023-03-04T01:44:27;100321.34;;;0.74;96.32
49341;BME280;35209;51.050;13.678;2023-03-04T01:49:29;100311.22;;;0.91;95.00
49341;BME280;35209;51.050;13.678;2023-03-04T01:54:31;100313.69;;;0.80;95.88
49341;BME280;35209;51.050;13.678;2023-03-04T01:59:32;100307.59;;;0.78;95.93
49341;BME280;35209;51.050;13.678;2023-03-04T02:04:34;100301.81;;;1.00;94.24
49341;BME280;35209;51.050;13.678;2023-03-04T02:09:36;100294.78;;;0.87;94.79
49341;BME280;35209;51.050;13.678;2023-03-04T02:14:38;100296.50;;;0.85;95.07
49341;BME280;35209;51.050;13.678;2023-03-04T02:19:46;100286.25;;;0.96;94.04
49341;BME280;35209;51.050;13.678;2023-03-04T02:24:59;100278.50;;;0.97;93.78
49341;BME280;35209;51.050;13.678;2023-03-04T02:30:04;100277.56;;;0.91;94.83
49341;BME280;35209;51.050;13.678;2023-03-04T02:35:12;100278.41;;;0.90;94.37
49341;BME280;35209;51.050;13.678;2023-03-04T02:40:23;100271.44;;;0.83;95.10
49341;BME280;35209;51.050;13.678;2023-03-04T02:50:45;100260.31;;;0.91;93.97
49341;BME280;35209;51.050;13.678;2023-03-04T02:55:47;100245.63;;;0.89;94.42
49341;BME280;35209;51.050;13.678;2023-03-04T03:00:50;100253.28;;;0.80;95.58
49341;BME280;35209;51.050;13.678;2023-03-04T03:05:52;100246.50;;;0.89;94.89
49341;BME280;35209;51.050;13.678;2023-03-04T03:10:54;100243.19;;;1.04;94.03
49341;BME280;35209;51.050;13.678;2023-03-04T03:15:57;100246.63;;;1.03;94.20
49341;BME280;35209;51.050;13.678;2023-03-04T03:20:59;100242.31;;;1.02;93.84
49341;BME280;35209;51.050;13.678;2023-03-04T03:26:02;100238.81;;;0.98;94.41
49341;BME280;35209;51.050;13.678;2023-03-04T03:31:05;100225.75;;;0.86;95.57
49341;BME280;35209;51.050;13.678;2023-03-04T03:36:07;100228.38;;;0.89;95.03
49341;BME280;35209;51.050;13.678;2023-03-04T03:41:09;100221.47;;;0.90;94.79
49341;BME280;35209;51.050;13.678;2023-03-04T03:46:11;100214.53;;;0.87;95.75
49341;BME280;35209;51.050;13.678;2023-03-04T03:51:13;100213.72;;;0.90;95.20
49341;BME280;35209;51.050;13.678;2023-03-04T03:56:14;100208.41;;;0.76;95.38
49341;BME280;35209;51.050;13.678;2023-03-04T04:01:16;100217.03;;;0.80;95.52
49341;BME280;35209;51.050;13.678;2023-03-04T04:06:18;100221.44;;;0.85;95.14
49341;BME280;35209;51.050;13.678;2023-03-04T04:11:20;100224.78;;;0.78;95.47
49341;BME280;35209;51.050;13.678;2023-03-04T04:16:21;100225.66;;;0.75;95.71
49341;BME280;35209;51.050;13.678;2023-03-04T04:21:23;100221.41;;;0.84;95.43
49341;BME280;35209;51.050;13.678;2023-03-04T04:26:25;100223.16;;;0.86;95.19
49341;BME280;35209;51.050;13.678;2023-03-04T04:31:27;100226.72;;;0.94;94.13
49341;BME280;35209;51.050;13.678;2023-03-04T04:36:28;100223.25;;;0.95;94.39
49341;BME280;35209;51.050;13.678;2023-03-04T04:41:35;100222.38;;;0.93;93.83
49341;BME280;35209;51.050;13.678;2023-03-04T04:46:37;100222.34;;;0.89;94.71
49341;BME280;35209;51.050;13.678;2023-03-04T04:51:39;100214.44;;;0.80;95.29
49341;BME280;35209;51.050;13.678;2023-03-04T04:56:41;100212.94;;;1.01;93.85
49341;BME280;35209;51.050;13.678;2023-03-04T05:01:43;100209.50;;;0.99;93.97
49341;BME280;35209;51.050;13.678;2023-03-04T05:06:45;100212.09;;;0.99;93.33
49341;BME280;35209;51.050;13.678;2023-03-04T05:11:47;100218.16;;;1.03;93.65
49341;BME280;35209;51.050;13.678;2023-03-04T05:16:49;100207.00;;;1.07;92.73
49341;BME280;35209;51.050;13.678;2023-03-04T05:21:50;100206.94;;;1.04;92.67
49341;BME280;35209;51.050;13.678;2023-03-04T05:26:52;100206.22;;;1.16;92.71
49341;BME280;35209;51.050;13.678;2023-03-04T05:31:54;100192.41;;;1.18;92.36
49341;BME280;35209;51.050;13.678;2023-03-04T05:36:56;100199.31;;;1.19;92.06
49341;BME280;35209;51.050;13.678;2023-03-04T05:41:57;100189.84;;;1.20;92.64
49341;BME280;35209;51.050;13.678;2023-03-04T05:46:59;100177.72;;;1.19;92.74
49341;BME280;35209;51.050;13.678;2023-03-04T05:52:01;100181.31;;;1.33;91.34
49341;BME280;35209;51.050;13.678;2023-03-04T05:57:02;100173.44;;;1.22;92.38
49341;BME280;35209;51.050;13.678;2023-03-04T06:02:04;100172.63;;;1.28;92.04
49341;BME280;35209;51.050;13.678;2023-03-04T06:07:06;100177.84;;;1.31;91.47
49341;BME280;35209;51.050;13.678;2023-03-04T06:12:07;100177.88;;;1.36;91.82
49341;BME280;35209;51.050;13.678;2023-03-04T06:17:09;100170.09;;;1.37;91.88
49341;BME280;35209;51.050;13.678;2023-03-04T06:22:11;100171.91;;;1.43;91.95
49341;BME280;35209;51.050;13.678;2023-03-04T06:27:13;100171.00;;;1.38;92.37
49341;BME280;35209;51.050;13.678;2023-03-04T06:32:14;100168.41;;;1.39;92.85
49341;BME280;35209;51.050;13.678;2023-03-04T06:37:16;100177.91;;;1.39;93.04
49341;BME280;35209;51.050;13.678;2023-03-04T06:42:18;100171.91;;;1.44;93.46
49341;BME280;35209;51.050;13.678;2023-03-04T06:47:20;100164.91;;;1.37;94.00
49341;BME280;35209;51.050;13.678;2023-03-04T06:52:21;100168.38;;;1.33;95.23
49341;BME280;35209;51.050;13.678;2023-03-04T06:57:23;100165.00;;;1.42;95.23
49341;BME280;35209;51.050;13.678;2023-03-04T07:02:25;100171.00;;;1.41;96.14
49341;BME280;35209;51.050;13.678;2023-03-04T07:07:26;100164.16;;;1.49;95.97
49341;BME280;35209;51.050;13.678;2023-03-04T07:12:28;100158.97;;;1.50;95.71
49341;BME280;35209;51.050;13.678;2023-03-04T07:17:30;100163.31;;;1.53;96.32
49341;BME280;35209;51.050;13.678;2023-03-04T07:22:31;100154.69;;;1.51;97.53
49341;BME280;35209;51.050;13.678;2023-03-04T07:27:33;100162.53;;;1.62;97.52
49341;BME280;35209;51.050;13.678;2023-03-04T07:32:35;100157.38;;;1.66;97.31
49341;BME280;35209;51.050;13.678;2023-03-04T07:37:37;100154.75;;;1.60;98.43
49341;BME280;35209;51.050;13.678;2023-03-04T07:42:40;100163.41;;;1.67;98.80
49341;BME280;35209;51.050;13.678;2023-03-04T07:47:45;100158.22;;;1.65;99.26
49341;BME280;35209;51.050;13.678;2023-03-04T07:52:47;100157.47;;;1.85;98.44
49341;BME280;35209;51.050;13.678;2023-03-04T07:57:51;100154.03;;;1.87;99.27
49341;BME280;35209;51.050;13.678;2023-03-04T08:02:53;100150.56;;;1.82;100.00
49341;BME280;35209;51.050;13.678;2023-03-04T08:07:54;100148.06;;;2.00;99.59
49341;BME280;35209;51.050;13.678;2023-03-04T08:12:58;100136.00;;;2.09;98.50
49341;BME280;35209;51.050;13.678;2023-03-04T08:18:01;100148.13;;;2.14;98.39
49341;BME280;35209;51.050;13.678;2023-03-04T08:23:02;100132.59;;;2.28;97.57
49341;BME280;35209;51.050;13.678;2023-03-04T08:28:05;100136.97;;;2.47;97.80
49341;BME280;35209;51.050;13.678;2023-03-04T08:33:08;100131.75;;;2.34;99.62
49341;BME280;35209;51.050;13.678;2023-03-04T08:38:10;100138.72;;;2.39;98.69
49341;BME280;35209;51.050;13.678;2023-03-04T08:43:11;100137.00;;;2.53;98.51
49341;BME280;35209;51.050;13.678;2023-03-04T08:48:13;100127.50;;;2.59;99.39
49341;BME280;35209;51.050;13.678;2023-03-04T08:53:16;100128.38;;;2.67;98.85
49341;BME280;35209;51.050;13.678;2023-03-04T08:58:22;100123.19;;;2.68;98.26
49341;BME280;35209;51.050;13.678;2023-03-04T09:03:23;100127.50;;;2.69;100.00
49341;BME280;35209;51.050;13.678;2023-03-04T09:08:25;100129.25;;;2.81;98.92
49341;BME280;35209;51.050;13.678;2023-03-04T09:13:29;100134.47;;;2.86;99.54
49341;BME280;35209;51.050;13.678;2023-03-04T09:18:31;100126.66;;;2.81;99.83
49341;BME280;35209;51.050;13.678;2023-03-04T09:23:40;100131.03;;;2.97;98.24
49341;BME280;35209;51.050;13.678;2023-03-04T09:28:43;100134.47;;;2.93;100.00
49341;BME280;35209;51.050;13.678;2023-03-04T09:33:51;100138.78;;;3.10;100.00
49341;BME280;35209;51.050;13.678;2023-03-04T09:38:53;100124.94;;;3.21;98.25
49341;BME280;35209;51.050;13.678;2023-03-04T09:44:40;100120.63;;;3.26;97.49
49341;BME280;35209;51.050;13.678;2023-03-04T09:49:54;100136.22;;;3.20;97.68
49341;BME280;35209;51.050;13.678;2023-03-04T10:00:11;100119.78;;;3.11;98.61
49341;BME280;35209;51.050;13.678;2023-03-04T10:05:20;100105.03;;;3.28;98.44
49341;BME280;35209;51.050;13.678;2023-03-04T10:10:38;100101.53;;;3.40;100.00
49341;BME280;35209;51.050;13.678;2023-03-04T10:15:48;100104.06;;;3.67;96.77
49341;BME280;35209;51.050;13.678;2023-03-04T10:21:05;100091.09;;;3.64;95.73
49341;BME280;35209;51.050;13.678;2023-03-04T10:26:16;100097.19;;;3.52;96.80
49341;BME280;35209;51.050;13.678;2023-03-04T10:31:33;100090.22;;;3.62;96.22
49341;BME280;35209;51.050;13.678;2023-03-04T10:36:53;100083.28;;;3.69;97.26
49341;BME280;35209;51.050;13.678;2023-03-04T10:42:04;100083.22;;;3.87;96.94
49341;BME280;35209;51.050;13.678;2023-03-04T10:47:10;100081.53;;;3.75;96.86
49341;BME280;35209;51.050;13.678;2023-03-04T10:52:38;100084.94;;;3.96;94.87
49341;BME280;35209;51.050;13.678;2023-03-04T10:57:43;100086.63;;;4.08;95.46
49341;BME280;35209;51.050;13.678;2023-03-04T11:02:46;100077.19;;;3.77;96.48
49341;BME280;35209;51.050;13.678;2023-03-04T11:07:54;100076.34;;;3.74;97.66
49341;BME280;35209;51.050;13.678;2023-03-04T11:13:01;100069.41;;;3.70;98.72
49341;BME280;35209;51.050;13.678;2023-03-04T11:18:17;100072.88;;;3.73;97.88
49341;BME280;35209;51.050;13.678;2023-03-04T11:23:48;100068.50;;;3.86;98.15
49341;BME280;35209;51.050;13.678;2023-03-04T11:34:07;100058.84;;;4.11;96.71
49341;BME280;35209;51.050;13.678;2023-03-04T11:44:28;100051.97;;;3.99;95.18
49341;BME280;35209;51.050;13.678;2023-03-04T11:49:46;100048.47;;;4.02;96.64
49341;BME280;35209;51.050;13.678;2023-03-04T12:21:19;100025.78;;;4.32;92.77
49341;BME280;35209;51.050;13.678;2023-03-04T12:31:47;100002.91;;;4.72;89.94
49341;BME280;35209;51.050;13.678;2023-03-04T12:37:07;99992.41;;;4.78;88.52
49341;BME280;35209;51.050;13.678;2023-03-04T12:58:17;99980.16;;;4.91;87.12
49341;BME280;35209;51.050;13.678;2023-03-04T13:13:41;99975.72;;;5.02;85.42
49341;BME280;35209;51.050;13.678;2023-03-04T13:18:43;99966.38;;;4.79;86.63
49341;BME280;35209;51.050;13.678;2023-03-04T13:23:45;99967.19;;;4.88;85.49
49341;BME280;35209;51.050;13.678;2023-03-04T13:29:40;99960.13;;;5.00;83.92
49341;BME280;35209;51.050;13.678;2023-03-04T13:34:52;99948.75;;;5.04;81.70
49341;BME280;35209;51.050;13.678;2023-03-04T13:45:38;99951.13;;;5.27;78.74
49341;BME280;35209;51.050;13.678;2023-03-04T13:50:45;99939.66;;;5.39;79.78
49341;BME280;35209;51.050;13.678;2023-03-04T13:56:05;99937.00;;;5.45;78.09
49341;BME280;35209;51.050;13.678;2023-03-04T14:01:28;99943.78;;;5.59;78.06
49341;BME280;35209;51.050;13.678;2023-03-04T14:06:32;99939.44;;;5.57;77.75
49341;BME280;35209;51.050;13.678;2023-03-04T14:11:37;99930.75;;;5.57;78.71
49341;BME280;35209;51.050;13.678;2023-03-04T14:16:59;99926.47;;;5.53;79.16
49341;BME280;35209;51.050;13.678;2023-03-04T14:22:02;99928.03;;;5.68;79.43
49341;BME280;35209;51.050;13.678;2023-03-04T14:27:11;99936.13;;;5.46;79.03
49341;BME280;35209;51.050;13.678;2023-03-04T14:32:15;99924.69;;;5.56;79.50
49341;BME280;35209;51.050;13.678;2023-03-04T14:37:22;99924.69;;;5.56;79.21
49341;BME280;35209;51.050;13.678;2023-03-04T14:42:33;99925.41;;;5.66;79.50
49341;BME280;35209;51.050;13.678;2023-03-04T14:47:42;99929.59;;;5.81;77.73
49341;BME280;35209;51.050;13.678;2023-03-04T14:52:48;99926.34;;;5.64;78.58
49341;BME280;35209;51.050;13.678;2023-03-04T14:58:08;99925.59;;;5.54;77.96
49341;BME280;35209;51.050;13.678;2023-03-04T15:03:28;99915.50;;;5.28;78.58
49341;BME280;35209;51.050;13.678;2023-03-04T15:08:35;99920.72;;;5.28;78.37
49341;BME280;35209;51.050;13.678;2023-03-04T15:13:44;99913.00;;;5.19;75.86
49341;BME280;35209;51.050;13.678;2023-03-04T15:19:23;99906.97;;;5.15;75.96
49341;BME280;35209;51.050;13.678;2023-03-04T15:24:24;99911.31;;;5.15;74.17
49341;BME280;35209;51.050;13.678;2023-03-04T15:29:27;99913.00;;;5.19;73.43
49341;BME280;35209;51.050;13.678;2023-03-04T15:34:29;99926.19;;;5.03;73.20
49341;BME280;35209;51.050;13.678;2023-03-04T15:39:31;99916.72;;;4.98;70.67
49341;BME280;35209;51.050;13.678;2023-03-04T15:44:34;99921.94;;;4.95;70.79
49341;BME280;35209;51.050;13.678;2023-03-04T15:49:36;99929.00;;;4.82;72.38
49341;BME280;35209;51.050;13.678;2023-03-04T15:54:38;99920.28;;;4.86;73.36
49341;BME280;35209;51.050;13.678;2023-03-04T15:59:39;99930.03;;;4.67;74.76
49341;BME280;35209;51.050;13.678;2023-03-04T16:04:42;99930.06;;;4.66;75.11
49341;BME280;35209;51.050;13.678;2023-03-04T16:09:45;99933.38;;;4.80;75.91
49341;BME280;35209;51.050;13.678;2023-03-04T16:14:47;99932.56;;;4.73;76.84
49341;BME280;35209;51.050;13.678;2023-03-04T16:19:50;99926.59;;;4.64;77.06
49341;BME280;35209;51.050;13.678;2023-03-04T16:24:52;99921.47;;;4.56;77.81
49341;BME280;35209;51.050;13.678;2023-03-04T16:29:56;99925.88;;;4.49;78.63
49341;BME280;35209;51.050;13.678;2023-03-04T16:34:58;99929.41;;;4.41;79.71
49341;BME280;35209;51.050;13.678;2023-03-04T16:39:59;99923.34;;;4.40;80.33
49341;BME280;35209;51.050;13.678;2023-03-04T16:45:01;99938.81;;;4.57;80.43
49341;BME280;35209;51.050;13.678;2023-03-04T16:50:04;99944.88;;;4.59;82.14
49341;BME280;35209;51.050;13.678;2023-03-04T16:55:11;99943.34;;;4.34;86.04
49341;BME280;35209;51.050;13.678;2023-03-04T17:00:17;99938.16;;;4.32;86.27
49341;BME280;35209;51.050;13.678;2023-03-04T17:05:21;99944.47;;;3.99;89.65
49341;BME280;35209;51.050;13.678;2023-03-04T17:10:24;99941.03;;;3.94;90.07
49341;BME280;35209;51.050;13.678;2023-03-04T17:15:27;99945.44;;;3.83;91.42
49341;BME280;35209;51.050;13.678;2023-03-04T17:20:29;99948.06;;;3.75;92.86
49341;BME280;35209;51.050;13.678;2023-03-04T17:25:31;99942.84;;;3.79;91.87
49341;BME280;35209;51.050;13.678;2023-03-04T17:30:33;99952.38;;;3.85;91.55
49341;BME280;35209;51.050;13.678;2023-03-04T17:35:37;99954.97;;;3.80;92.99
49341;BME280;35209;51.050;13.678;2023-03-04T17:40:41;99954.16;;;3.77;92.94
49341;BME280;35209;51.050;13.678;2023-03-04T17:45:43;99965.38;;;3.76;90.91
49341;BME280;35209;51.050;13.678;2023-03-04T17:50:49;99963.66;;;3.79;89.34
49341;BME280;35209;51.050;13.678;2023-03-04T17:55:57;99966.31;;;3.66;89.15
49341;BME280;35209;51.050;13.678;2023-03-04T18:01:15;99960.31;;;3.59;88.43
49341;BME280;35209;51.050;13.678;2023-03-04T18:06:18;99956.78;;;3.68;86.23
49341;BME280;35209;51.050;13.678;2023-03-04T18:11:22;99959.47;;;3.48;87.17
49341;BME280;35209;51.050;13.678;2023-03-04T18:16:25;99964.66;;;3.56;84.10
49341;BME280;35209;51.050;13.678;2023-03-04T18:21:29;99959.44;;;3.57;83.73
49341;BME280;35209;51.050;13.678;2023-03-04T18:26:31;99959.41;;;3.60;84.62
49341;BME280;35209;51.050;13.678;2023-03-04T18:31:34;99953.44;;;3.46;86.49
49341;BME280;35209;51.050;13.678;2023-03-04T18:36:37;99968.06;;;3.61;86.47
49341;BME280;35209;51.050;13.678;2023-03-04T18:41:40;99961.97;;;3.66;87.11
49341;BME280;35209;51.050;13.678;2023-03-04T18:46:42;99962.94;;;3.51;87.44
49341;BME280;35209;51.050;13.678;2023-03-04T18:51:46;99959.50;;;3.39;89.21
49341;BME280;35209;51.050;13.678;2023-03-04T18:56:52;99965.44;;;3.67;88.19
49341;BME280;35209;51.050;13.678;2023-03-04T19:02:01;99954.28;;;3.45;90.05
49341;BME280;35209;51.050;13.678;2023-03-04T19:07:07;99970.72;;;3.51;90.36
49341;BME280;35209;51.050;13.678;2023-03-04T19:12:08;99973.28;;;3.59;89.24
49341;BME280;35209;51.050;13.678;2023-03-04T19:17:11;99973.41;;;3.33;91.45
49341;BME280;35209;51.050;13.678;2023-03-04T19:22:13;99970.75;;;3.45;91.17
49341;BME280;35209;51.050;13.678;2023-03-04T19:27:15;99970.75;;;3.36;92.36
49341;BME280;35209;51.050;13.678;2023-03-04T19:32:17;99977.75;;;3.25;92.20
49341;BME280;35209;51.050;13.678;2023-03-04T19:37:20;99971.66;;;3.26;92.34
49341;BME280;35209;51.050;13.678;2023-03-04T19:42:22;99973.38;;;3.32;91.57
49341;BME280;35209;51.050;13.678;2023-03-04T19:47:24;99980.28;;;3.40;92.62
49341;BME280;35209;51.050;13.678;2023-03-04T19:52:26;99971.69;;;3.24;93.27
49341;BME280;35209;51.050;13.678;2023-03-04T19:57:28;99977.78;;;3.10;93.47
49341;BME280;35209;51.050;13.678;2023-03-04T20:02:30;99976.00;;;3.22;92.45
49341;BME280;35209;51.050;13.678;2023-03-04T20:07:32;99980.38;;;3.19;92.03
49341;BME280;35209;51.050;13.678;2023-03-04T20:12:33;99982.94;;;3.20;91.60
49341;BME280;35209;51.050;13.678;2023-03-04T20:17:36;99985.56;;;3.10;93.54
49341;BME280;35209;51.050;13.678;2023-03-04T20:22:38;99982.97;;;3.00;95.47
49341;BME280;35209;51.050;13.678;2023-03-04T20:27:40;99984.72;;;3.04;97.40
49341;BME280;35209;51.050;13.678;2023-03-04T20:32:41;99990.81;;;2.88;98.34
49341;BME280;35209;51.050;13.678;2023-03-04T20:37:43;99983.84;;;2.96;96.78
49341;BME280;35209;51.050;13.678;2023-03-04T20:42:45;99979.50;;;3.14;94.23
49341;BME280;35209;51.050;13.678;2023-03-04T20:47:47;99983.00;;;3.02;94.18
49341;BME280;35209;51.050;13.678;2023-03-04T20:52:51;99984.75;;;2.92;95.67
49341;BME280;35209;51.050;13.678;2023-03-04T20:57:53;99978.66;;;3.02;94.12
49341;BME280;35209;51.050;13.678;2023-03-04T21:02:54;99979.50;;;3.04;93.00
49341;BME280;35209;51.050;13.678;2023-03-04T21:13:01;99969.16;;;2.97;93.12
49341;BME280;35209;51.050;13.678;2023-03-04T21:18:03;99963.97;;;2.95;93.98
49341;BME280;35209;51.050;13.678;2023-03-04T21:23:05;99967.41;;;2.96;93.73
49341;BME280;35209;51.050;13.678;2023-03-04T21:28:06;99970.06;;;2.76;93.95
49341;BME280;35209;51.050;13.678;2023-03-04T21:33:17;99963.13;;;2.84;92.99
49341;BME280;35209;51.050;13.678;2023-03-04T21:38:19;99972.66;;;2.76;92.34
49341;BME280;35209;51.050;13.678;2023-03-04T21:43:21;99965.72;;;2.86;90.16
49341;BME280;35209;51.050;13.678;2023-03-04T21:48:24;99970.91;;;2.90;87.75
49341;BME280;35209;51.050;13.678;2023-03-04T21:53:26;99971.78;;;2.92;88.13
49341;BME280;35209;51.050;13.678;2023-03-04T21:58:29;99963.97;;;2.88;88.95
49341;BME280;35209;51.050;13.678;2023-03-04T22:03:31;99959.66;;;2.85;89.60
49341;BME280;35209;51.050;13.678;2023-03-04T22:08:33;99947.59;;;2.70;91.69
49341;BME280;35209;51.050;13.678;2023-03-04T22:13:35;99941.50;;;2.79;91.47
49341;BME280;35209;51.050;13.678;2023-03-04T22:18:37;99944.94;;;2.87;89.83
49341;BME280;35209;51.050;13.678;2023-03-04T22:23:41;99932.84;;;2.77;89.57
49341;BME280;35209;51.050;13.678;2023-03-04T22:28:43;99934.56;;;2.76;89.59
49341;BME280;35209;51.050;13.678;2023-03-04T22:33:46;99930.25;;;2.75;89.28
49341;BME280;35209;51.050;13.678;2023-03-04T22:38:48;99927.66;;;2.65;90.37
49341;BME280;35209;51.050;13.678;2023-03-04T22:43:49;99926.78;;;2.80;89.00
49341;BME280;35209;51.050;13.678;2023-03-04T22:48:54;99925.91;;;2.77;89.18
49341;BME280;35209;51.050;13.678;2023-03-04T22:53:56;99941.50;;;2.64;89.21
49341;BME280;35209;51.050;13.678;2023-03-04T22:58:58;99925.06;;;2.69;87.64
49341;BME280;35209;51.050;13.678;2023-03-04T23:04:00;99920.75;;;2.67;88.08
49341;BME280;35209;51.050;13.678;2023-03-04T23:09:02;99925.09;;;2.62;88.92
49341;BME280;35209;51.050;13.678;2023-03-04T23:14:05;99926.84;;;2.49;89.25
49341;BME280;35209;51.050;13.678;2023-03-04T23:19:15;99922.50;;;2.57;88.75
49341;BME280;35209;51.050;13.678;2023-03-04T23:24:17;99925.09;;;2.51;87.41
49341;BME280;35209;51.050;13.678;2023-03-04T23:29:20;99916.44;;;2.57;85.52
49341;BME280;35209;51.050;13.678;2023-03-04T23:34:22;99911.25;;;2.58;84.87
49341;BME280;35209;51.050;13.678;2023-03-04T23:39:24;99913.84;;;2.46;85.00
49341;BME280;35209;51.050;13.678;2023-03-04T23:44:25;99906.06;;;2.53;82.96
49341;BME280;35209;51.050;13.678;2023-03-04T23:49:27;99911.25;;;2.38;83.56
49341;BME280;35209;51.050;13.678;2023-03-04T23:54:29;99901.75;;;2.43;83.03
49341;BME280;35209;51.050;13.678;2023-03-04T23:59:31;99906.97;;;2.13;84.74
